Time;durP1;ratioP1;P1;durP2;ratioP2;P2;SDS_P1;SDS_P2;PMS_P1;PMS_P2;Temp;Humidity;BMP_temperature;BMP_pressure;BME280_temperature;BME280_humidity;BME280_pressure;Samples;Min_cycle;Max_cycle;Signal;HPM_P1;HPM_P2
2023/09/13 05:16:40;;;;;;;;;;;;;;;;;;3331237;26;19933;-48
2023/09/13 05:19:05;;;;;;;;;;;;;;;;;;4991760;28;20315;-48
2023/09/13 05:21:31;;;;;;;;;;;;;;;;;;4991778;28;19965;-49
2023/09/13 05:23:57;;;;;;;;;;;;;;;;;;4991684;28;19952;-47
2023/09/13 05:26:23;;;;;;;;;;;;;;;;;;4991566;28;20454;-50
2023/09/13 05:28:49;;;;;;;;;;;;;;;;;;4990972;28;19916;-49
2023/09/13 05:31:15;;;;;;;;;;;;;;;;;;5000676;28;19917;-48
2023/09/13 05:33:41;;;;;;;;;;;;;;;;;;5011021;28;20007;-48
2023/09/13 05:36:07;;;;;;;;;;;;;;;;;;5010891;28;20465;-49
2023/09/13 05:38:32;;;;;;;;;;;;;;;;;;5010927;28;19909;-47
2023/09/13 05:40:58;;;;;;;;;;;;;;;;;;5011169;28;19909;-49
2023/09/13 05:43:27;;;;;;;;;;;;;;;;;;5008795;28;19914;-48
2023/09/13 05:45:53;;;;;;;;;;;;;;;;;;5006246;28;19914;-52
2023/09/13 05:48:18;;;;;;;;;;;;;;;;;;4999699;28;19910;-49
2023/09/13 05:50:44;;;;;;;;;;;;;;;;;;5011752;28;19913;-48
2023/09/13 05:53:10;;;;;;;;;;;;;;;;;;5006470;28;19910;-47
2023/09/13 05:55:37;;;;;;;;;;;;;;;;;;5011543;28;19914;-48
2023/09/13 05:58:03;;;;;;;;;;;;;;;;;;5006434;28;20512;-47
2023/09/13 06:00:29;;;;;;;;;;;;;;;;;;5005739;28;19913;-51
2023/09/13 06:02:54;;;;;;;;;;;;;;;;;;5005587;28;19944;-48
2023/09/13 06:05:20;;;;;;;;;;;;;;;;;;4993241;28;19914;-50
2023/09/13 06:07:46;;;;;;;;;;;;;;;;;;4998727;28;19910;-50
2023/09/13 06:10:12;;;;;;;;;;;;;;;;;;5005951;28;19909;-49
2023/09/13 06:12:38;;;;;;;;;;;;;;;;;;5010868;28;20437;-49
2023/09/13 06:15:04;;;;;;;;;;;;;;;;;;4991799;28;19910;-54
2023/09/13 06:17:30;;;;;;;;;;;;;;;;;;4993566;28;19921;-51
2023/09/13 06:19:56;;;;;;;;;;;;;;;;;;4991835;28;20353;-52
2023/09/13 06:22:21;;;;;;;;;;;;;;;;;;4998321;28;19913;-52
2023/09/13 06:24:47;;;;;;;;;;;;;;;;;;5018942;28;19917;-52
2023/09/13 06:27:13;;;;;;;;;;;;;;;;;;5009623;28;19913;-52
2023/09/13 06:29:39;;;;;;;;;;;;;;;;;;5003959;28;19922;-49
2023/09/13 06:32:06;;;;;;;;;;;;;;;;;;5004827;28;19913;-51
2023/09/13 06:34:32;;;;;;;;;;;;;;;;;;5007303;28;19910;-51
2023/09/13 06:36:58;;;;;;;;;;;;;;;;;;5008817;28;20028;-49
2023/09/13 06:39:24;;;;;;;;;;;;;;;;;;5009484;28;19914;-48
2023/09/13 06:41:50;;;;;;;;;;;;;;;;;;4999294;28;19920;-49
2023/09/13 06:44:15;;;;;;;;;;;;;;;;;;5006240;28;20012;-50
2023/09/13 06:46:42;;;;;;;;;;;;;;;;;;4990295;28;19917;-50
2023/09/13 06:49:08;;;;;;;;;;;;;;;;;;5009017;28;20324;-50
2023/09/13 06:51:33;;;;;;;;;;;;;;;;;;5011012;28;19975;-50
2023/09/13 06:53:59;;;;;;;;;;;;;;;;;;5011021;28;19910;-53
2023/09/13 06:56:25;;;;;;;;;;;;;;;;;;5010716;28;20355;-49
2023/09/13 06:58:52;;;;;;;;;;;;;;;;;;5015935;28;19920;-49
2023/09/13 07:01:18;;;;;;;;;;;;;;;;;;5030888;28;20397;-52
2023/09/13 07:03:44;;;;;;;;;;;;;;;;;;5014703;28;20007;-52
2023/09/13 07:06:10;;;;;;;;;;;;;;;;;;5015511;28;19916;-49
2023/09/13 07:08:36;;;;;;;;;;;;;;;;;;5030663;28;19915;-48
2023/09/13 07:11:02;;;;;;;;;;;;;;;;;;5025796;28;20425;-48
2023/09/13 07:13:28;;;;;;;;;;;;;;;;;;4988844;28;19914;-48
2023/09/13 07:15:54;;;;;;;;;;;;;;;;;;4991037;28;20463;-48
2023/09/13 07:18:20;;;;;;;;;;;;;;;;;;4998588;28;19928;-51
2023/09/13 07:20:46;;;;;;;;;;;;;;;;;;5003270;28;20315;-48
2023/09/13 07:23:11;;;;;;;;;;;;;;;;;;5002317;28;20004;-49
2023/09/13 07:25:37;;;;;;;;;;;;;;;;;;4997973;28;20414;-51
2023/09/13 07:28:03;;;;;;;;;;;;;;;;;;4994662;28;19920;-48
2023/09/13 07:30:29;;;;;;;;;;;;;;;;;;5003899;28;20007;-49
2023/09/13 07:32:55;;;;;;;;;;;;;;;;;;4999798;28;19913;-48
2023/09/13 07:35:22;;;;;;;;;;;;;;;;;;5005081;28;19910;-48
2023/09/13 07:37:47;;;;;;;;;;;;;;;;;;5003887;28;20520;-47
2023/09/13 07:40:13;;;;;;;;;;;;;;;;;;4988412;28;20012;-48
2023/09/13 07:42:39;;;;;;;;;;;;;;;;;;4988118;28;19910;-49
2023/09/13 07:45:05;;;;;;;;;;;;;;;;;;4988635;28;19910;-49
2023/09/13 07:47:31;;;;;;;;;;;;;;;;;;4992782;28;19913;-49
2023/09/13 07:49:57;;;;;;;;;;;;;;;;;;4989099;28;19948;-48
2023/09/13 07:52:24;;;;;;;;;;;;;;;;;;5005173;28;19909;-47
2023/09/13 07:54:50;;;;;;;;;;;;;;;;;;5011575;28;19917;-48
2023/09/13 07:57:16;;;;;;;;;;;;;;;;;;5009568;28;19913;-47
2023/09/13 07:59:42;;;;;;;;;;;;;;;;;;5008957;28;20269;-48
2023/09/13 08:02:08;;;;;;;;;;;;;;;;;;5012055;28;19909;-46
2023/09/13 08:04:34;;;;;;;;;;;;;;;;;;5012455;28;19910;-46
2023/09/13 08:07:00;;;;;;;;;;;;;;;;;;5013009;28;19909;-47
2023/09/13 08:09:26;;;;;;;;;;;;;;;;;;4995287;28;20417;-46
2023/09/13 08:11:52;;;;;;;;;;;;;;;;;;5012298;28;20480;-45
2023/09/13 08:14:18;;;;;;;;;;;;;;;;;;4994783;28;19949;-46
2023/09/13 08:16:44;;;;;;;;;;;;;;;;;;4995106;28;19972;-46
2023/09/13 08:19:10;;;;;;;;;;;;;;;;;;5012339;28;19910;-48
2023/09/13 08:21:36;;;;;;;;;;;;;;;;;;5012259;28;19936;-45
2023/09/13 08:24:03;;;;;;;;;;;;;;;;;;4995828;28;20327;-47
2023/09/13 08:26:30;;;;;;;;;;;;;;;;;;5016647;28;19936;-46
2023/09/13 08:28:56;;;;;;;;;;;;;;;;;;5011955;28;19925;-45
2023/09/13 08:31:23;;;;;;;;;;;;;;;;;;5011923;28;19913;-45
2023/09/13 08:33:49;;;;;;;;;;;;;;;;;;4994380;28;20387;-48
2023/09/13 08:36:17;;;;;;;;;;;;;;;;;;5006552;28;19930;-48
2023/09/13 08:38:43;;;;;;;;;;;;;;;;;;4998167;28;19981;-47
2023/09/13 08:41:09;;;;;;;;;;;;;;;;;;5030419;28;20008;-52
2023/09/13 08:43:35;;;;;;;;;;;;;;;;;;5030302;28;19909;-49
2023/09/13 08:46:00;;;;;;;;;;;;;;;;;;5031090;28;19920;-47
2023/09/13 08:48:26;;;;;;;;;;;;;;;;;;5030441;28;19952;-48
2023/09/13 08:50:52;;;;;;;;;;;;;;;;;;5030991;28;19913;-49
2023/09/13 08:53:18;;;;;;;;;;;;;;;;;;5030523;28;20473;-49
2023/09/13 08:55:44;;;;;;;;;;;;;;;;;;5029967;28;19909;-45
2023/09/13 08:58:10;;;;;;;;;;;;;;;;;;5030470;28;19910;-49
2023/09/13 09:00:37;;;;;;;;;;;;;;;;;;5030544;28;19956;-49
2023/09/13 09:03:03;;;;;;;;;;;;;;;;;;4990107;28;19916;-45
2023/09/13 09:05:29;;;;;;;;;;;;;;;;;;5007993;28;20419;-47
2023/09/13 09:07:55;;;;;;;;;;;;;;;;;;5009364;28;19917;-49
2023/09/13 09:10:20;;;;;;;;;;;;;;;;;;5007410;28;20357;-49
2023/09/13 09:12:46;;;;;;;;;;;;;;;;;;5013754;28;19913;-47
2023/09/13 09:15:12;;;;;;;;;;;;;;;;;;5012016;28;19913;-44
2023/09/13 09:17:38;;;;;;;;;;;;;;;;;;5008415;28;20012;-51
2023/09/13 09:20:04;;;;;;;;;;;;;;;;;;5008459;28;19918;-47
2023/09/13 09:22:30;;;;;;;;;;;;;;;;;;5008518;28;19913;-51
2023/09/13 09:24:56;;;;;;;;;;;;;;;;;;4996336;28;20284;-50
2023/09/13 09:27:22;;;;;;;;;;;;;;;;;;5020212;28;20008;-50
2023/09/13 09:29:47;;;;;;;;;;;;;;;;;;4999981;28;20285;-50
2023/09/13 09:32:14;;;;;;;;;;;;;;;;;;5006517;28;20376;-49
2023/09/13 09:34:40;;;;;;;;;;;;;;;;;;5010515;28;20399;-48
2023/09/13 09:37:07;;;;;;;;;;;;;;;;;;5010200;28;19913;-48
2023/09/13 09:39:32;;;;;;;;;;;;;;;;;;4994825;28;20003;-51
2023/09/13 09:41:59;;;;;;;;;;;;;;;;;;5009367;28;19996;-51
2023/09/13 09:44:25;;;;;;;;;;;;;;;;;;4984630;28;19910;-50
2023/09/13 09:46:50;;;;;;;;;;;;;;;;;;5005409;28;19920;-48
2023/09/13 09:49:16;;;;;;;;;;;;;;;;;;5011019;28;20018;-48
2023/09/13 09:51:42;;;;;;;;;;;;;;;;;;5010262;28;20006;-51
2023/09/13 09:54:08;;;;;;;;;;;;;;;;;;4999455;28;19941;-47
2023/09/13 09:56:34;;;;;;;;;;;;;;;;;;5005101;28;20024;-48
2023/09/13 09:59:00;;;;;;;;;;;;;;;;;;5009257;28;19920;-50
2023/09/13 10:01:26;;;;;;;;;;;;;;;;;;5009683;28;20403;-48
2023/09/13 10:03:54;;;;;;;;;;;;;;;;;;5009892;28;19913;-47
2023/09/13 10:06:20;;;;;;;;;;;;;;;;;;5010551;28;19910;-47
2023/09/13 10:08:46;;;;;;;;;;;;;;;;;;5010880;28;19916;-49
2023/09/13 10:11:12;;;;;;;;;;;;;;;;;;5010939;28;20300;-48
2023/09/13 10:13:38;;;;;;;;;;;;;;;;;;5010549;28;19945;-48
2023/09/13 10:16:04;;;;;;;;;;;;;;;;;;5009625;28;19925;-49
2023/09/13 10:18:30;;;;;;;;;;;;;;;;;;5013163;28;19952;-49
2023/09/13 10:20:56;;;;;;;;;;;;;;;;;;5011939;28;20268;-48
2023/09/13 10:23:22;;;;;;;;;;;;;;;;;;5030266;28;19923;-47
2023/09/13 10:25:47;;;;;;;;;;;;;;;;;;5025402;28;20548;-48
2023/09/13 10:28:14;;;;;;;;;;;;;;;;;;5011232;28;20507;-49
2023/09/13 10:30:40;;;;;;;;;;;;;;;;;;5009195;28;19983;-48
2023/09/13 10:33:05;;;;;;;;;;;;;;;;;;5008243;28;19918;-50
2023/09/13 10:35:32;;;;;;;;;;;;;;;;;;5009017;28;19913;-47
2023/09/13 10:37:57;;;;;;;;;;;;;;;;;;5009443;28;19913;-49
2023/09/13 10:40:23;;;;;;;;;;;;;;;;;;5006134;28;19975;-52
2023/09/13 10:42:49;;;;;;;;;;;;;;;;;;5017854;28;19920;-52
2023/09/13 10:45:18;;;;;;;;;;;;;;;;;;5020349;28;19941;-50
2023/09/13 10:47:44;;;;;;;;;;;;;;;;;;5009309;28;20265;-51
2023/09/13 10:50:10;;;;;;;;;;;;;;;;;;5016779;28;19963;-49
2023/09/13 10:52:36;;;;;;;;;;;;;;;;;;5009218;28;19927;-52
2023/09/13 10:55:01;;;;;;;;;;;;;;;;;;5012685;28;19951;-53
2023/09/13 10:57:27;;;;;;;;;;;;;;;;;;4991040;28;19921;-48
2023/09/13 10:59:53;;;;;;;;;;;;;;;;;;5021618;28;20435;-49
2023/09/13 11:02:22;;;;;;;;;;;;;;;;;;5029969;28;20313;-48
2023/09/13 11:04:48;;;;;;;;;;;;;;;;;;5025344;28;19949;-51
2023/09/13 11:07:14;;;;;;;;;;;;;;;;;;5018022;28;19964;-53
2023/09/13 11:09:40;;;;;;;;;;;;;;;;;;5016421;28;20445;-50
2023/09/13 11:12:06;;;;;;;;;;;;;;;;;;5013869;28;20312;-49
2023/09/13 11:14:33;;;;;;;;;;;;;;;;;;5003204;28;19914;-48
2023/09/13 11:16:59;;;;;;;;;;;;;;;;;;5017389;28;20343;-50
2023/09/13 11:19:25;;;;;;;;;;;;;;;;;;5005898;28;20260;-49
2023/09/13 11:21:52;;;;;;;;;;;;;;;;;;5007327;28;20407;-49
2023/09/13 11:24:18;;;;;;;;;;;;;;;;;;5003535;28;19949;-50
2023/09/13 11:26:44;;;;;;;;;;;;;;;;;;4995430;28;20412;-49
2023/09/13 11:29:10;;;;;;;;;;;;;;;;;;5010526;28;20063;-50
2023/09/13 11:31:36;;;;;;;;;;;;;;;;;;5011602;28;19964;-48
2023/09/13 11:34:02;;;;;;;;;;;;;;;;;;5012481;28;19913;-48
2023/09/13 11:36:28;;;;;;;;;;;;;;;;;;5011672;28;20434;-49
2023/09/13 11:38:54;;;;;;;;;;;;;;;;;;5012317;28;19921;-51
2023/09/13 11:41:20;;;;;;;;;;;;;;;;;;5008708;28;19913;-50
2023/09/13 11:43:46;;;;;;;;;;;;;;;;;;5012418;28;19914;-50
2023/09/13 11:46:12;;;;;;;;;;;;;;;;;;5012129;28;20272;-51
2023/09/13 11:48:41;;;;;;;;;;;;;;;;;;5012265;28;20176;-48
2023/09/13 11:51:07;;;;;;;;;;;;;;;;;;5010508;28;20411;-49
2023/09/13 11:53:33;;;;;;;;;;;;;;;;;;5010268;28;19913;-49
2023/09/13 11:55:58;;;;;;;;;;;;;;;;;;5009942;28;19913;-45
2023/09/13 11:58:24;;;;;;;;;;;;;;;;;;5011701;28;19914;-47
2023/09/13 12:00:50;;;;;;;;;;;;;;;;;;5009024;28;19909;-48
2023/09/13 12:03:17;;;;;;;;;;;;;;;;;;5010847;28;19952;-46
2023/09/13 12:05:43;;;;;;;;;;;;;;;;;;5010805;28;19909;-46
2023/09/13 12:08:09;;;;;;;;;;;;;;;;;;5010753;28;19967;-48
2023/09/13 12:10:38;;;;;;;;;;;;;;;;;;5011496;28;19932;-48
2023/09/13 12:13:04;;;;;;;;;;;;;;;;;;5006700;28;19922;-49
2023/09/13 12:15:30;;;;;;;;;;;;;;;;;;5011845;28;20299;-48
2023/09/13 12:17:57;;;;;;;;;;;;;;;;;;5002891;28;19918;-48
2023/09/13 12:20:23;;;;;;;;;;;;;;;;;;5011348;28;19948;-45
2023/09/13 12:22:51;;;;;;;;;;;;;;;;;;5010163;28;20036;-48
2023/09/13 12:25:17;;;;;;;;;;;;;;;;;;5010678;28;20035;-51
2023/09/13 12:27:43;;;;;;;;;;;;;;;;;;5003764;28;19992;-51
2023/09/13 12:30:09;;;;;;;;;;;;;;;;;;5009761;28;19921;-46
2023/09/13 12:32:35;;;;;;;;;;;;;;;;;;5002770;28;20000;-49
2023/09/13 12:35:01;;;;;;;;;;;;;;;;;;5006671;28;20051;-49
2023/09/13 12:37:27;;;;;;;;;;;;;;;;;;5011531;28;19921;-46
2023/09/13 12:39:53;;;;;;;;;;;;;;;;;;5012214;28;20004;-47
2023/09/13 12:42:19;;;;;;;;;;;;;;;;;;5010435;28;19960;-47
2023/09/13 12:44:46;;;;;;;;;;;;;;;;;;5011699;28;19953;-48
2023/09/13 12:47:12;;;;;;;;;;;;;;;;;;5009806;28;19956;-46
2023/09/13 12:49:37;;;;;;;;;;;;;;;;;;5012038;28;20327;-49
2023/09/13 12:52:05;;;;;;;;;;;;;;;;;;5012188;28;19910;-46
2023/09/13 12:54:30;;;;;;;;;;;;;;;;;;5011326;28;19910;-49
2023/09/13 12:56:56;;;;;;;;;;;;;;;;;;5010984;28;20477;-46
2023/09/13 12:59:22;;;;;;;;;;;;;;;;;;5010126;28;20459;-49
2023/09/13 13:01:48;;;;;;;;;;;;;;;;;;5012059;28;19920;-50
2023/09/13 13:04:16;;;;;;;;;;;;;;;;;;5011849;28;19909;-49
2023/09/13 13:06:41;;;;;;;;;;;;;;;;;;5008194;28;19964;-51
2023/09/13 13:09:08;;;;;;;;;;;;;;;;;;5009886;28;19913;-49
2023/09/13 13:11:34;;;;;;;;;;;;;;;;;;5009875;28;19909;-50
2023/09/13 13:14:00;;;;;;;;;;;;;;;;;;4993189;28;19914;-48
2023/09/13 13:16:26;;;;;;;;;;;;;;;;;;5011274;28;19914;-46
2023/09/13 13:18:52;;;;;;;;;;;;;;;;;;5010794;28;20438;-46
2023/09/13 13:21:18;;;;;;;;;;;;;;;;;;5010721;28;19909;-44
2023/09/13 13:23:45;;;;;;;;;;;;;;;;;;5011056;28;19992;-44
2023/09/13 13:26:11;;;;;;;;;;;;;;;;;;5010547;28;19963;-46
2023/09/13 13:28:37;;;;;;;;;;;;;;;;;;5010463;28;20348;-44
2023/09/13 13:31:04;;;;;;;;;;;;;;;;;;5010475;28;19909;-44
2023/09/13 13:33:30;;;;;;;;;;;;;;;;;;5011294;28;19916;-45
2023/09/13 13:35:57;;;;;;;;;;;;;;;;;;5011033;28;19996;-43
2023/09/13 13:38:23;;;;;;;;;;;;;;;;;;5010420;28;19960;-43
2023/09/13 13:40:49;;;;;;;;;;;;;;;;;;5010254;28;20473;-43
2023/09/13 13:43:15;;;;;;;;;;;;;;;;;;5010081;28;19916;-42
2023/09/13 13:45:41;;;;;;;;;;;;;;;;;;5010043;28;20384;-45
2023/09/13 13:48:07;;;;;;;;;;;;;;;;;;5009449;28;19964;-43
2023/09/13 13:50:33;;;;;;;;;;;;;;;;;;5009027;28;19917;-42
2023/09/13 13:52:59;;;;;;;;;;;;;;;;;;5010630;28;19969;-41
2023/09/13 13:55:24;;;;;;;;;;;;;;;;;;5009978;28;19959;-41
2023/09/13 13:57:50;;;;;;;;;;;;;;;;;;5009516;28;19936;-41
2023/09/13 14:00:16;;;;;;;;;;;;;;;;;;5009641;28;19956;-42
2023/09/13 14:02:42;;;;;;;;;;;;;;;;;;5008948;28;20377;-41
2023/09/13 14:05:08;;;;;;;;;;;;;;;;;;5009281;28;19917;-44
2023/09/13 14:07:34;;;;;;;;;;;;;;;;;;5008621;28;19932;-43
2023/09/13 14:10:00;;;;;;;;;;;;;;;;;;5009492;28;20365;-44
2023/09/13 14:12:34;;;;;;;;;;;;;;;;;;5084846;28;19946;-44
2023/09/13 14:15:00;;;;;;;;;;;;;;;;;;5070604;28;19912;-44
2023/09/13 14:17:26;;;;;;;;;;;;;;;;;;5065249;28;19916;-43
2023/09/13 14:19:52;;;;;;;;;;;;;;;;;;5071166;28;20322;-44
2023/09/13 14:22:18;;;;;;;;;;;;;;;;;;5083854;28;20011;-46
2023/09/13 14:24:43;;;;;;;;;;;;;;;;;;5075148;28;19909;-45
2023/09/13 14:27:09;;;;;;;;;;;;;;;;;;5064414;28;20012;-47
2023/09/13 14:29:35;;;;;;;;;;;;;;;;;;5064918;28;19916;-45
2023/09/13 14:32:03;;;;;;;;;;;;;;;;;;5064950;28;19912;-44
2023/09/13 14:34:29;;;;;;;;;;;;;;;;;;5065455;28;19909;-44
2023/09/13 14:36:55;;;;;;;;;;;;;;;;;;5082748;28;19986;-45
2023/09/13 14:39:21;;;;;;;;;;;;;;;;;;5082412;28;19912;-45
2023/09/13 14:41:51;;;;;;;;;;;;;;;;;;5084648;28;20310;-46
2023/09/13 14:44:17;;;;;;;;;;;;;;;;;;5084437;28;19909;-44
2023/09/13 14:46:44;;;;;;;;;;;;;;;;;;5072736;28;20444;-44
2023/09/13 14:49:10;;;;;;;;;;;;;;;;;;5063382;28;20151;-44
2023/09/13 14:51:37;;;;;;;;;;;;;;;;;;5063122;28;19921;-45
2023/09/13 14:54:03;;;;;;;;;;;;;;;;;;5063590;28;20039;-47
2023/09/13 14:56:29;;;;;;;;;;;;;;;;;;5062700;28;19922;-44
2023/09/13 14:58:55;;;;;;;;;;;;;;;;;;5068908;28;19925;-45
2023/09/13 15:01:21;;;;;;;;;;;;;;;;;;5062855;28;20296;-46
2023/09/13 15:03:47;;;;;;;;;;;;;;;;;;5096679;28;19942;-46
2023/09/13 15:06:17;;;;;;;;;;;;;;;;;;5082918;28;19962;-45
2023/09/13 15:08:43;;;;;;;;;;;;;;;;;;5082971;28;19914;-44
2023/09/13 15:11:09;;;;;;;;;;;;;;;;;;5082852;28;19916;-45
2023/09/13 15:13:34;;;;;;;;;;;;;;;;;;5082219;28;20162;-44
2023/09/13 15:16:00;;;;;;;;;;;;;;;;;;5077170;28;19917;-45
2023/09/13 15:18:26;;;;;;;;;;;;;;;;;;5061120;28;19913;-44
2023/09/13 15:20:52;;;;;;;;;;;;;;;;;;5061473;28;19908;-45
2023/09/13 15:23:18;;;;;;;;;;;;;;;;;;5052294;28;20008;-45
2023/09/13 15:25:44;;;;;;;;;;;;;;;;;;5048857;28;19909;-45
2023/09/13 15:28:10;;;;;;;;;;;;;;;;;;5054707;28;19923;-46
2023/09/13 15:30:36;;;;;;;;;;;;;;;;;;5069922;28;19961;-45
2023/09/13 15:33:03;;;;;;;;;;;;;;;;;;5069354;28;19909;-48
2023/09/13 15:35:29;;;;;;;;;;;;;;;;;;5069030;28;19909;-46
2023/09/13 15:37:55;;;;;;;;;;;;;;;;;;5051480;28;19923;-46
2023/09/13 15:40:21;;;;;;;;;;;;;;;;;;5048639;28;20486;-47
2023/09/13 15:42:47;;;;;;;;;;;;;;;;;;5048686;28;19939;-46
2023/09/13 15:45:12;;;;;;;;;;;;;;;;;;5062920;28;19912;-46
2023/09/13 15:47:38;;;;;;;;;;;;;;;;;;5068111;28;19908;-46
2023/09/13 15:50:04;;;;;;;;;;;;;;;;;;5069363;28;19915;-46
2023/09/13 15:52:30;;;;;;;;;;;;;;;;;;5067405;28;19958;-46
2023/09/13 15:54:57;;;;;;;;;;;;;;;;;;5060738;28;20035;-46
2023/09/13 15:57:23;;;;;;;;;;;;;;;;;;5068346;28;19919;-47
2023/09/13 15:59:49;;;;;;;;;;;;;;;;;;5054078;28;19909;-47
2023/09/13 16:02:15;;;;;;;;;;;;;;;;;;5048152;28;19967;-46
2023/09/13 16:04:41;;;;;;;;;;;;;;;;;;5067109;28;19952;-47
2023/09/13 16:07:07;;;;;;;;;;;;;;;;;;5067720;28;19916;-47
2023/09/13 16:09:34;;;;;;;;;;;;;;;;;;5069558;28;19909;-45
2023/09/13 16:11:59;;;;;;;;;;;;;;;;;;5068119;28;20387;-48
2023/09/13 16:14:25;;;;;;;;;;;;;;;;;;5053693;28;19917;-45
2023/09/13 16:16:51;;;;;;;;;;;;;;;;;;5047783;28;19916;-49
2023/09/13 16:19:17;;;;;;;;;;;;;;;;;;5048030;28;20000;-48
2023/09/13 16:21:43;;;;;;;;;;;;;;;;;;5047863;28;19916;-46
2023/09/13 16:24:09;;;;;;;;;;;;;;;;;;5064277;28;19927;-45
2023/09/13 16:26:35;;;;;;;;;;;;;;;;;;5065565;28;19912;-47
2023/09/13 16:29:01;;;;;;;;;;;;;;;;;;5066046;28;19939;-48
2023/09/13 16:31:27;;;;;;;;;;;;;;;;;;5067817;28;20264;-48
2023/09/13 16:33:53;;;;;;;;;;;;;;;;;;5067529;28;19908;-49
2023/09/13 16:36:19;;;;;;;;;;;;;;;;;;5069138;28;20487;-46
2023/09/13 16:38:45;;;;;;;;;;;;;;;;;;5066584;28;20006;-49
2023/09/13 16:41:11;;;;;;;;;;;;;;;;;;5069210;28;19909;-48
2023/09/13 16:43:36;;;;;;;;;;;;;;;;;;5068490;28;20455;-46
2023/09/13 16:46:02;;;;;;;;;;;;;;;;;;5068375;28;20007;-47
2023/09/13 16:48:28;;;;;;;;;;;;;;;;;;5066419;28;19935;-50
2023/09/13 16:50:54;;;;;;;;;;;;;;;;;;5056740;28;19917;-45
2023/09/13 16:53:21;;;;;;;;;;;;;;;;;;5058224;28;19913;-48
2023/09/13 16:55:46;;;;;;;;;;;;;;;;;;5066773;28;20367;-45
2023/09/13 16:58:14;;;;;;;;;;;;;;;;;;5065013;28;19954;-49
2023/09/13 17:00:41;;;;;;;;;;;;;;;;;;5068591;28;19952;-47
2023/09/13 17:03:07;;;;;;;;;;;;;;;;;;5068126;28;19913;-46
2023/09/13 17:05:34;;;;;;;;;;;;;;;;;;5067040;28;19912;-47
2023/09/13 17:08:00;;;;;;;;;;;;;;;;;;5051066;28;20349;-47
2023/09/13 17:10:26;;;;;;;;;;;;;;;;;;5064240;28;19928;-46
2023/09/13 17:12:52;;;;;;;;;;;;;;;;;;5067083;28;19916;-46
2023/09/13 17:15:18;;;;;;;;;;;;;;;;;;5066993;28;19954;-46
2023/09/13 17:17:44;;;;;;;;;;;;;;;;;;5063734;28;19920;-46
2023/09/13 17:20:09;;;;;;;;;;;;;;;;;;5066888;28;19993;-47
2023/09/13 17:22:35;;;;;;;;;;;;;;;;;;5065207;28;19926;-47
2023/09/13 17:25:01;;;;;;;;;;;;;;;;;;5058067;28;19919;-46
2023/09/13 17:27:27;;;;;;;;;;;;;;;;;;5065649;28;19912;-46
2023/09/13 17:29:53;;;;;;;;;;;;;;;;;;5065046;28;19913;-46
2023/09/13 17:32:19;;;;;;;;;;;;;;;;;;5061298;28;19916;-46
2023/09/13 17:34:45;;;;;;;;;;;;;;;;;;5046527;28;19908;-48
2023/09/13 17:37:12;;;;;;;;;;;;;;;;;;5073062;28;19908;-46
2023/09/13 17:39:38;;;;;;;;;;;;;;;;;;5061693;28;19951;-46
2023/09/13 17:42:03;;;;;;;;;;;;;;;;;;5067513;28;19916;-46
2023/09/13 17:44:29;;;;;;;;;;;;;;;;;;5064101;28;19959;-48
2023/09/13 17:46:55;;;;;;;;;;;;;;;;;;5064768;28;19916;-46
2023/09/13 17:49:21;;;;;;;;;;;;;;;;;;5063217;28;20406;-45
2023/09/13 17:51:47;;;;;;;;;;;;;;;;;;5066105;28;19912;-46
2023/09/13 17:54:13;;;;;;;;;;;;;;;;;;5064471;28;19943;-45
2023/09/13 17:56:39;;;;;;;;;;;;;;;;;;5064253;28;19913;-46
2023/09/13 17:59:05;;;;;;;;;;;;;;;;;;5065629;28;19912;-47
2023/09/13 18:01:31;;;;;;;;;;;;;;;;;;5054195;28;20360;-49
2023/09/13 18:03:56;;;;;;;;;;;;;;;;;;5052599;28;19920;-47
2023/09/13 18:06:22;;;;;;;;;;;;;;;;;;5060835;28;19924;-46
2023/09/13 18:08:48;;;;;;;;;;;;;;;;;;5055527;28;20012;-47
2023/09/13 18:11:14;;;;;;;;;;;;;;;;;;5057678;28;19924;-46
2023/09/13 18:13:42;;;;;;;;;;;;;;;;;;5062538;28;19996;-48
2023/09/13 18:16:08;;;;;;;;;;;;;;;;;;5062171;28;19920;-48
2023/09/13 18:18:34;;;;;;;;;;;;;;;;;;5063911;28;19912;-46
2023/09/13 18:20:59;;;;;;;;;;;;;;;;;;5059042;28;20007;-46
2023/09/13 18:23:26;;;;;;;;;;;;;;;;;;5061853;28;20015;-47
2023/09/13 18:25:52;;;;;;;;;;;;;;;;;;5052249;28;19913;-47
2023/09/13 18:28:18;;;;;;;;;;;;;;;;;;5060363;28;20008;-46
2023/09/13 18:30:44;;;;;;;;;;;;;;;;;;5057361;28;19920;-47
2023/09/13 18:33:10;;;;;;;;;;;;;;;;;;5056555;28;19917;-46
2023/09/13 18:35:36;;;;;;;;;;;;;;;;;;5062692;28;20418;-46
2023/09/13 18:38:03;;;;;;;;;;;;;;;;;;5050002;28;19921;-46
2023/09/13 18:40:28;;;;;;;;;;;;;;;;;;5065954;28;20451;-49
2023/09/13 18:42:54;;;;;;;;;;;;;;;;;;5065198;28;19917;-47
2023/09/13 18:45:20;;;;;;;;;;;;;;;;;;5064933;28;19913;-50
2023/09/13 18:47:46;;;;;;;;;;;;;;;;;;5065566;28;20298;-50
2023/09/13 18:50:12;;;;;;;;;;;;;;;;;;5063579;28;19927;-47
2023/09/13 18:52:38;;;;;;;;;;;;;;;;;;5064627;28;20287;-46
2023/09/13 18:55:04;;;;;;;;;;;;;;;;;;5057083;28;19913;-47
2023/09/13 18:57:31;;;;;;;;;;;;;;;;;;5046593;28;19916;-46
2023/09/13 18:59:57;;;;;;;;;;;;;;;;;;5049129;28;20788;-46
2023/09/13 19:02:23;;;;;;;;;;;;;;;;;;5066340;28;19912;-48
2023/09/13 19:04:49;;;;;;;;;;;;;;;;;;5048981;28;19913;-49
2023/09/13 19:07:15;;;;;;;;;;;;;;;;;;5049683;28;20514;-47
2023/09/13 19:09:41;;;;;;;;;;;;;;;;;;5060946;28;19916;-50
2023/09/13 19:12:07;;;;;;;;;;;;;;;;;;5068921;28;19924;-49
2023/09/13 19:14:32;;;;;;;;;;;;;;;;;;5058611;28;19913;-47
2023/09/13 19:16:59;;;;;;;;;;;;;;;;;;5059632;28;20287;-46
2023/09/13 19:19:25;;;;;;;;;;;;;;;;;;5056261;28;19924;-50
2023/09/13 19:21:51;;;;;;;;;;;;;;;;;;5062024;28;19912;-49
2023/09/13 19:24:17;;;;;;;;;;;;;;;;;;5049568;28;20366;-46
2023/09/13 19:26:43;;;;;;;;;;;;;;;;;;5067849;28;19920;-47
2023/09/13 19:29:09;;;;;;;;;;;;;;;;;;5055570;28;19962;-46
2023/09/13 19:31:35;;;;;;;;;;;;;;;;;;5049199;28;19917;-47
2023/09/13 19:34:01;;;;;;;;;;;;;;;;;;5060051;28;19913;-49
2023/09/13 19:36:27;;;;;;;;;;;;;;;;;;5067215;28;20382;-45
2023/09/13 19:38:53;;;;;;;;;;;;;;;;;;5061728;28;20022;-47
2023/09/13 19:41:18;;;;;;;;;;;;;;;;;;5066582;28;19920;-45
2023/09/13 19:43:44;;;;;;;;;;;;;;;;;;5066893;28;19919;-47
2023/09/13 19:46:11;;;;;;;;;;;;;;;;;;5065529;28;20259;-46
2023/09/13 19:48:36;;;;;;;;;;;;;;;;;;5064118;28;19912;-48
2023/09/13 19:51:02;;;;;;;;;;;;;;;;;;5065377;28;20291;-46
2023/09/13 19:53:29;;;;;;;;;;;;;;;;;;5066754;28;19924;-47
2023/09/13 19:55:54;;;;;;;;;;;;;;;;;;5065615;28;19919;-47
2023/09/13 19:58:20;;;;;;;;;;;;;;;;;;5067719;28;19908;-45
2023/09/13 20:00:49;;;;;;;;;;;;;;;;;;5061416;28;19931;-47
2023/09/13 20:03:15;;;;;;;;;;;;;;;;;;5054659;28;20302;-46
2023/09/13 20:05:41;;;;;;;;;;;;;;;;;;5057807;28;19913;-47
2023/09/13 20:08:07;;;;;;;;;;;;;;;;;;5065855;28;19995;-47
2023/09/13 20:10:33;;;;;;;;;;;;;;;;;;5065014;28;20012;-48
2023/09/13 20:12:58;;;;;;;;;;;;;;;;;;5066901;28;19959;-49
2023/09/13 20:15:26;;;;;;;;;;;;;;;;;;5060797;28;19913;-46
2023/09/13 20:17:51;;;;;;;;;;;;;;;;;;5047844;28;20330;-45
2023/09/13 20:20:17;;;;;;;;;;;;;;;;;;5048342;28;20189;-47
2023/09/13 20:22:43;;;;;;;;;;;;;;;;;;5064313;28;19913;-47
2023/09/13 20:25:09;;;;;;;;;;;;;;;;;;5066571;28;20326;-46
2023/09/13 20:27:35;;;;;;;;;;;;;;;;;;5049151;28;19920;-48
2023/09/13 20:30:01;;;;;;;;;;;;;;;;;;5066569;28;19913;-46
2023/09/13 20:32:27;;;;;;;;;;;;;;;;;;5067673;28;20300;-47
2023/09/13 20:34:53;;;;;;;;;;;;;;;;;;5053446;28;19913;-47
2023/09/13 20:37:18;;;;;;;;;;;;;;;;;;5060161;28;20298;-46
2023/09/13 20:39:44;;;;;;;;;;;;;;;;;;5063116;28;19912;-46
2023/09/13 20:42:11;;;;;;;;;;;;;;;;;;5054938;28;19916;-45
2023/09/13 20:44:36;;;;;;;;;;;;;;;;;;5064412;28;20375;-46
2023/09/13 20:47:02;;;;;;;;;;;;;;;;;;5056299;28;19919;-46
2023/09/13 20:49:28;;;;;;;;;;;;;;;;;;5059629;28;19939;-45
2023/09/13 20:51:56;;;;;;;;;;;;;;;;;;5050921;28;19942;-46
2023/09/13 20:54:22;;;;;;;;;;;;;;;;;;5063934;28;19939;-46
2023/09/13 20:56:48;;;;;;;;;;;;;;;;;;5064617;28;20007;-46
2023/09/13 20:59:14;;;;;;;;;;;;;;;;;;5057711;28;20016;-46
2023/09/13 21:01:40;;;;;;;;;;;;;;;;;;5047179;28;19915;-47
2023/09/13 21:04:06;;;;;;;;;;;;;;;;;;5058871;28;19951;-46
2023/09/13 21:06:31;;;;;;;;;;;;;;;;;;5063571;28;20295;-46
2023/09/13 21:08:57;;;;;;;;;;;;;;;;;;5058742;28;19917;-49
2023/09/13 21:11:23;;;;;;;;;;;;;;;;;;5062077;28;20383;-49
2023/09/13 21:13:49;;;;;;;;;;;;;;;;;;5047301;28;19982;-46
2023/09/13 21:16:15;;;;;;;;;;;;;;;;;;5054141;28;20288;-46
2023/09/13 21:18:41;;;;;;;;;;;;;;;;;;5059525;28;19913;-48
2023/09/13 21:21:07;;;;;;;;;;;;;;;;;;5061336;28;19913;-47
2023/09/13 21:23:33;;;;;;;;;;;;;;;;;;5058883;28;19952;-46
2023/09/13 21:25:59;;;;;;;;;;;;;;;;;;5062265;28;20428;-49
2023/09/13 21:28:25;;;;;;;;;;;;;;;;;;5058047;28;19921;-47
2023/09/13 21:30:51;;;;;;;;;;;;;;;;;;5056246;28;19912;-49
2023/09/13 21:33:17;;;;;;;;;;;;;;;;;;5065645;28;19912;-47
2023/09/13 21:35:43;;;;;;;;;;;;;;;;;;5062286;28;20390;-47
2023/09/13 21:38:10;;;;;;;;;;;;;;;;;;5045842;28;19913;-45
2023/09/13 21:40:36;;;;;;;;;;;;;;;;;;5049242;28;20314;-47
2023/09/13 21:43:01;;;;;;;;;;;;;;;;;;5063801;28;19913;-49
2023/09/13 21:45:27;;;;;;;;;;;;;;;;;;5050889;28;19909;-47
2023/09/13 21:47:53;;;;;;;;;;;;;;;;;;5059642;28;19923;-47
2023/09/13 21:50:19;;;;;;;;;;;;;;;;;;5067642;28;19908;-47
2023/09/13 21:52:45;;;;;;;;;;;;;;;;;;5067507;28;19912;-48